createdAt,value
2016-12-09T00:00:24.063Z,23.74
2016-12-09T00:00:52.247Z,23.85
2016-12-09T00:01:20.446Z,23.85
2016-12-09T00:01:48.663Z,23.82
2016-12-09T00:02:16.966Z,23.88
2016-12-09T00:02:45.154Z,23.85
2016-12-09T00:03:13.416Z,23.89
2016-12-09T00:03:41.628Z,23.79
2016-12-09T00:04:09.872Z,23.88
2016-12-09T00:04:37.897Z,23.84
2016-12-09T00:05:06.102Z,23.84
2016-12-09T00:06:17.342Z,23.88
2016-12-09T00:06:45.623Z,23.82
2016-12-09T00:07:13.919Z,23.84
2016-12-09T00:07:42.139Z,23.85
2016-12-09T00:08:10.444Z,23.71
2016-12-09T00:08:38.634Z,23.7
2016-12-09T00:09:06.714Z,23.67
2016-12-09T00:09:35.013Z,23.66
2016-12-09T00:10:03.173Z,23.69
2016-12-09T00:10:31.283Z,23.66
2016-12-09T00:10:59.489Z,23.66
2016-12-09T00:12:10.819Z,23.61
2016-12-09T00:12:39.004Z,23.55
2016-12-09T00:13:07.206Z,23.63
2016-12-09T00:13:35.333Z,23.63
2016-12-09T00:14:03.635Z,23.71
2016-12-09T00:14:31.911Z,23.69
2016-12-09T00:15:00.088Z,23.66
2016-12-09T00:15:28.298Z,23.69
2016-12-09T00:15:56.547Z,23.71
2016-12-09T00:16:24.659Z,23.74
2016-12-09T00:16:52.960Z,23.76
2016-12-09T00:18:04.106Z,23.76
2016-12-09T00:18:32.295Z,23.86
2016-12-09T00:19:00.313Z,23.86
2016-12-09T00:19:28.627Z,23.88
2016-12-09T00:19:56.933Z,23.85
2016-12-09T00:20:25.124Z,23.88
2016-12-09T00:20:53.297Z,23.85
2016-12-09T00:21:21.601Z,23.74
2016-12-09T00:21:49.847Z,23.73
2016-12-09T00:22:17.958Z,23.73
2016-12-09T00:22:46.164Z,23.69
2016-12-09T00:23:57.398Z,23.63
2016-12-09T00:24:25.585Z,23.52
2016-12-09T00:24:53.787Z,23.52
2016-12-09T00:25:22.101Z,23.51
2016-12-09T00:25:50.399Z,23.52
2016-12-09T00:26:18.680Z,23.48
2016-12-09T00:26:46.850Z,23.48
2016-12-09T00:27:15.059Z,23.59
2016-12-09T00:27:43.402Z,23.49
2016-12-09T00:28:11.597Z,23.45
2016-12-09T00:28:39.804Z,23.55
2016-12-09T00:29:50.858Z,23.51
2016-12-09T00:30:19.043Z,23.56
2016-12-09T00:30:47.248Z,23.67
2016-12-09T00:31:15.277Z,23.61
2016-12-09T00:31:43.588Z,23.63
2016-12-09T00:32:11.865Z,23.61
2016-12-09T00:32:40.034Z,23.56
2016-12-09T00:33:08.151Z,23.59
2016-12-09T00:33:36.315Z,23.64
2016-12-09T00:34:04.523Z,23.66
2016-12-09T00:34:32.823Z,23.7
2016-12-09T00:35:43.968Z,23.73
2016-12-09T00:36:12.159Z,23.79
2016-12-09T00:36:40.450Z,23.73
2016-12-09T00:37:08.665Z,23.78
2016-12-09T00:37:36.882Z,23.79
2016-12-09T00:38:05.074Z,23.74
2016-12-09T00:38:33.342Z,23.82
2016-12-09T00:39:01.552Z,23.78
2016-12-09T00:39:29.702Z,23.73
2016-12-09T00:39:57.909Z,23.74
2016-12-09T00:40:26.209Z,23.66
2016-12-09T00:41:37.354Z,23.73
2016-12-09T00:42:05.543Z,23.61
2016-12-09T00:42:33.743Z,23.67
2016-12-09T00:43:01.872Z,23.67
2016-12-09T00:43:30.178Z,23.67
2016-12-09T00:43:58.458Z,23.63
2016-12-09T00:44:26.636Z,23.61
2016-12-09T00:44:54.754Z,23.59
2016-12-09T00:45:23.095Z,23.63
2016-12-09T00:45:51.203Z,23.61
2016-12-09T00:46:19.501Z,23.61
2016-12-09T00:47:30.735Z,23.51
2016-12-09T00:47:59.010Z,23.49
2016-12-09T00:48:27.304Z,23.56
2016-12-09T00:48:55.432Z,23.54
2016-12-09T00:49:23.739Z,23.59
2016-12-09T00:49:52.019Z,23.55
2016-12-09T00:50:20.193Z,23.51
2016-12-09T00:50:48.211Z,23.46
2016-12-09T00:51:16.460Z,23.52
2016-12-09T00:51:44.666Z,23.46
2016-12-09T00:52:12.873Z,23.51
2016-12-09T00:53:24.110Z,23.36
2016-12-09T00:53:52.295Z,23.46
2016-12-09T00:54:20.496Z,23.37
2016-12-09T00:54:48.621Z,23.44
2016-12-09T00:55:16.737Z,23.44
2016-12-09T00:55:45.021Z,23.45
2016-12-09T00:56:12.921Z,23.46
2016-12-09T00:56:41.130Z,23.54
2016-12-09T00:57:09.194Z,23.46
2016-12-09T00:57:37.303Z,23.49
2016-12-09T00:58:05.418Z,23.48
2016-12-09T00:59:16.651Z,23.51
2016-12-09T00:59:44.746Z,23.54
2016-12-09T01:00:12.766Z,23.51
2016-12-09T01:00:40.895Z,23.55
2016-12-09T01:01:09.127Z,23.54
2016-12-09T01:01:37.298Z,23.54
2016-12-09T01:02:05.470Z,23.52
2016-12-09T01:02:33.771Z,23.56
2016-12-09T01:03:01.930Z,23.54
2016-12-09T01:03:30.039Z,23.54
2016-12-09T01:03:58.245Z,23.51
2016-12-09T01:05:09.305Z,23.49
2016-12-09T01:05:37.588Z,23.49
2016-12-09T01:06:05.877Z,23.54
2016-12-09T01:06:34.185Z,23.51
2016-12-09T01:07:02.295Z,23.46
2016-12-09T01:07:30.576Z,23.54
2016-12-09T01:07:58.657Z,23.48
2016-12-09T01:08:26.686Z,23.51
2016-12-09T01:08:54.834Z,23.64
2016-12-09T01:09:23.031Z,23.64
2016-12-09T01:09:51.334Z,23.61
2016-12-09T01:11:02.666Z,23.7
2016-12-09T01:11:30.941Z,23.67
2016-12-09T01:11:59.050Z,23.69
2016-12-09T01:12:27.184Z,23.71
2016-12-09T01:12:55.486Z,23.71
2016-12-09T01:13:23.765Z,23.74
2016-12-09T01:13:51.937Z,23.7
2016-12-09T01:14:19.964Z,23.79
2016-12-09T01:14:48.121Z,23.73
2016-12-09T01:15:16.236Z,23.71
2016-12-09T01:15:44.352Z,23.74
2016-12-09T01:16:55.592Z,23.82
2016-12-09T01:17:23.865Z,23.78
2016-12-09T01:17:51.972Z,23.76
2016-12-09T01:18:20.289Z,23.84
2016-12-09T01:18:48.496Z,23.78
2016-12-09T01:19:16.684Z,23.79
2016-12-09T01:19:44.948Z,23.81
2016-12-09T01:20:12.978Z,23.81
2016-12-09T01:20:41.228Z,23.81
2016-12-09T01:21:09.434Z,23.76
2016-12-09T01:21:37.737Z,23.81
2016-12-09T01:22:48.879Z,23.82
2016-12-09T01:23:17.063Z,23.84
2016-12-09T01:23:45.357Z,23.88
2016-12-09T01:24:13.576Z,23.79
2016-12-09T01:24:41.882Z,23.85
2016-12-09T01:25:10.216Z,23.88
2016-12-09T01:25:38.484Z,23.91
2016-12-09T01:26:06.696Z,23.91
2016-12-09T01:26:34.851Z,23.84
2016-12-09T01:27:03.151Z,23.86
2016-12-09T01:27:31.454Z,23.82
2016-12-09T01:28:42.595Z,23.82
2016-12-09T01:29:10.778Z,23.79
2016-12-09T01:29:38.981Z,23.82
2016-12-09T01:30:07.642Z,23.78
2016-12-09T01:30:35.942Z,23.74
2016-12-09T01:31:04.226Z,23.67
2016-12-09T01:31:32.489Z,23.69
2016-12-09T01:32:00.792Z,23.76
2016-12-09T01:32:28.858Z,23.78
2016-12-09T01:32:57.060Z,23.76
2016-12-09T01:33:25.358Z,23.73
2016-12-09T01:34:36.500Z,23.78
2016-12-09T01:35:04.684Z,23.82
2016-12-09T01:35:32.890Z,23.71
2016-12-09T01:36:01.110Z,23.74
2016-12-09T01:36:29.229Z,23.73
2016-12-09T01:36:57.412Z,23.7
2016-12-09T01:37:25.493Z,23.67
2016-12-09T01:37:53.700Z,23.71
2016-12-09T01:38:22.043Z,23.7
2016-12-09T01:38:50.080Z,23.66
2016-12-09T01:39:18.382Z,23.71
2016-12-09T01:40:29.532Z,23.76
2016-12-09T01:40:57.713Z,23.67
2016-12-09T01:41:25.918Z,23.67
2016-12-09T01:41:54.142Z,23.67
2016-12-09T01:42:22.347Z,23.7
2016-12-09T01:42:50.627Z,23.7
2016-12-09T01:43:18.610Z,23.67
2016-12-09T01:43:46.720Z,23.69
2016-12-09T01:44:14.786Z,23.67
2016-12-09T01:44:42.899Z,23.69
2016-12-09T01:45:11.103Z,23.73
2016-12-09T01:46:22.337Z,23.81
2016-12-09T01:46:50.429Z,23.84
2016-12-09T01:47:18.714Z,23.84
2016-12-09T01:47:46.942Z,23.81
2016-12-09T01:48:15.155Z,23.92
2016-12-09T01:48:43.247Z,23.91
2016-12-09T01:49:11.416Z,23.91
2016-12-09T01:49:39.433Z,23.92
2016-12-09T01:50:07.776Z,23.89
2016-12-09T01:50:35.974Z,23.96
2016-12-09T01:51:04.182Z,23.89
2016-12-09T01:52:15.419Z,23.96
2016-12-09T01:52:43.600Z,23.97
2016-12-09T01:53:11.798Z,23.94
2016-12-09T01:53:40.010Z,24
2016-12-09T01:54:08.225Z,23.89
2016-12-09T01:54:36.321Z,23.91
2016-12-09T01:55:04.493Z,23.88
2016-12-09T01:55:32.702Z,23.81
2016-12-09T01:56:00.947Z,23.73
2016-12-09T01:56:29.147Z,23.71
2016-12-09T01:56:57.360Z,23.69
2016-12-09T01:58:08.687Z,23.63
2016-12-09T01:58:36.780Z,23.66
2016-12-09T01:59:05.074Z,23.63
2016-12-09T01:59:33.320Z,23.69
2016-12-09T02:00:01.528Z,23.66
2016-12-09T02:00:29.716Z,23.69
2016-12-09T02:00:57.799Z,23.76
2016-12-09T02:01:25.914Z,23.78
2016-12-09T02:01:54.067Z,23.78
2016-12-09T02:02:22.364Z,23.71
2016-12-09T02:02:50.663Z,23.71
2016-12-09T02:04:01.901Z,23.82
2016-12-09T02:04:30.179Z,23.78
2016-12-09T02:04:58.197Z,23.76
2016-12-09T02:05:26.415Z,23.78
2016-12-09T02:05:54.527Z,23.84
2016-12-09T02:06:22.443Z,23.84
2016-12-09T02:06:50.615Z,23.88
2016-12-09T02:07:18.825Z,23.94
2016-12-09T02:07:47.069Z,23.96
2016-12-09T02:08:15.083Z,23.86
2016-12-09T02:08:43.285Z,23.96
2016-12-09T02:09:54.427Z,23.85
2016-12-09T02:10:22.614Z,23.89
2016-12-09T02:10:50.910Z,23.85
2016-12-09T02:11:18.937Z,23.88
2016-12-09T02:11:47.149Z,23.81
2016-12-09T02:12:15.335Z,23.76
2016-12-09T02:12:43.598Z,23.76
2016-12-09T02:13:11.721Z,23.78
2016-12-09T02:13:39.968Z,23.79
2016-12-09T02:14:08.279Z,23.79
2016-12-09T02:14:36.489Z,23.85
2016-12-09T02:15:47.823Z,23.84
2016-12-09T02:16:16.012Z,23.88
2016-12-09T02:16:44.217Z,23.82
2016-12-09T02:17:12.529Z,23.85
2016-12-09T02:17:40.643Z,23.86
2016-12-09T02:18:08.923Z,23.91
2016-12-09T02:18:36.909Z,23.91
2016-12-09T02:19:05.210Z,23.94
2016-12-09T02:19:33.462Z,23.82
2016-12-09T02:20:01.669Z,23.85
2016-12-09T02:20:29.970Z,23.86
2016-12-09T02:21:41.305Z,23.89
2016-12-09T02:22:09.489Z,23.86
2016-12-09T02:22:37.692Z,23.86
2016-12-09T02:23:05.915Z,23.86
2016-12-09T02:23:34.124Z,23.84
2016-12-09T02:24:02.407Z,23.89
2016-12-09T02:24:30.677Z,23.88
2016-12-09T02:24:58.790Z,23.88
2016-12-09T02:25:27.037Z,23.82
2016-12-09T02:25:55.332Z,23.96
2016-12-09T02:26:23.544Z,23.97
2016-12-09T02:27:34.594Z,23.92
2016-12-09T02:28:02.873Z,23.88
2016-12-09T02:28:31.173Z,23.76
2016-12-09T02:28:59.291Z,23.74
2016-12-09T02:29:27.597Z,23.74
2016-12-09T02:29:55.790Z,23.71
2016-12-09T02:30:24.055Z,23.71
2016-12-09T02:30:52.354Z,23.82
2016-12-09T02:31:20.606Z,23.81
2016-12-09T02:31:48.624Z,23.76
2016-12-09T02:32:16.920Z,23.82
2016-12-09T02:33:27.971Z,23.81
2016-12-09T02:33:56.249Z,23.82
2016-12-09T02:34:24.372Z,23.81
2016-12-09T02:34:52.679Z,23.82
2016-12-09T02:35:20.885Z,23.79
2016-12-09T02:35:49.166Z,23.84
2016-12-09T02:36:17.340Z,23.79
2016-12-09T02:36:45.641Z,23.78
2016-12-09T02:37:13.991Z,23.74
2016-12-09T02:37:42.197Z,23.79
2016-12-09T02:38:10.404Z,23.76
2016-12-09T02:39:21.733Z,23.76
2016-12-09T02:39:49.916Z,23.84
2016-12-09T02:40:18.029Z,23.85
2016-12-09T02:40:46.339Z,23.76
2016-12-09T02:41:14.643Z,23.78
2016-12-09T02:41:42.924Z,23.81
2016-12-09T02:42:10.909Z,23.76
2016-12-09T02:42:39.212Z,23.84
2016-12-09T02:43:07.368Z,23.85
2016-12-09T02:43:35.571Z,23.82
2016-12-09T02:44:03.776Z,23.84
2016-12-09T02:45:15.106Z,23.88
2016-12-09T02:45:43.388Z,23.78
2016-12-09T02:46:11.582Z,23.84
2016-12-09T02:46:39.720Z,23.82
2016-12-09T02:47:07.841Z,23.79
2016-12-09T02:47:35.939Z,23.81
2016-12-09T02:48:04.113Z,23.79
2016-12-09T02:48:32.333Z,23.82
2016-12-09T02:49:00.678Z,23.81
2016-12-09T02:49:28.787Z,23.76
2016-12-09T02:49:56.898Z,23.81
2016-12-09T02:51:07.962Z,23.78
2016-12-09T02:51:36.148Z,23.81
2016-12-09T02:52:04.344Z,23.76
2016-12-09T02:52:32.656Z,23.86
2016-12-09T02:53:00.868Z,23.84
2016-12-09T02:53:29.052Z,23.85
2016-12-09T02:53:57.128Z,23.85
2016-12-09T02:54:25.432Z,23.82
2016-12-09T02:54:53.492Z,23.79
2016-12-09T02:55:21.696Z,23.84
2016-12-09T02:55:49.718Z,23.78
2016-12-09T02:57:00.958Z,23.79
2016-12-09T02:57:28.961Z,23.76
2016-12-09T02:57:57.254Z,23.7
2016-12-09T02:58:25.566Z,23.82
2016-12-09T02:58:54.214Z,23.79
2016-12-09T02:59:22.404Z,23.82
2016-12-09T02:59:50.672Z,23.76
2016-12-09T03:00:18.971Z,23.81
2016-12-09T03:00:47.218Z,23.81
2016-12-09T03:01:15.230Z,23.74
2016-12-09T03:01:43.343Z,23.79
2016-12-09T03:02:54.483Z,23.82
2016-12-09T03:03:22.674Z,23.81
2016-12-09T03:03:50.876Z,23.81
2016-12-09T03:04:19.096Z,23.79
2016-12-09T03:04:47.303Z,23.73
2016-12-09T03:05:15.399Z,23.78
2016-12-09T03:05:43.572Z,23.74
2016-12-09T03:06:11.785Z,23.71
2016-12-09T03:06:39.936Z,23.73
2016-12-09T03:07:08.233Z,23.73
2016-12-09T03:07:36.536Z,23.71
2016-12-09T03:08:47.678Z,23.74
2016-12-09T03:09:15.959Z,23.73
2016-12-09T03:09:44.159Z,23.71
2016-12-09T03:10:12.284Z,23.73
2016-12-09T03:10:40.496Z,23.7
2016-12-09T03:11:08.684Z,23.71
2016-12-09T03:11:36.767Z,23.7
2016-12-09T03:12:05.074Z,23.69
2016-12-09T03:12:33.322Z,23.69
2016-12-09T03:13:01.448Z,23.73
2016-12-09T03:13:29.748Z,23.69
2016-12-09T03:14:40.886Z,23.69
2016-12-09T03:15:08.985Z,23.69
2016-12-09T03:15:37.188Z,23.64
2016-12-09T03:16:05.404Z,23.69
2016-12-09T03:16:33.523Z,23.66
2016-12-09T03:17:01.524Z,23.63
2016-12-09T03:17:29.503Z,23.64
2016-12-09T03:17:57.615Z,23.61
2016-12-09T03:18:25.955Z,23.69
2016-12-09T03:18:54.068Z,23.66
2016-12-09T03:19:22.363Z,23.64
2016-12-09T03:20:33.515Z,23.63
2016-12-09T03:21:01.607Z,23.59
2016-12-09T03:21:29.904Z,23.59
2016-12-09T03:21:58.028Z,23.64
2016-12-09T03:22:26.335Z,23.6
2016-12-09T03:22:54.518Z,23.61
2016-12-09T03:23:22.692Z,23.52
2016-12-09T03:23:50.993Z,23.51
2016-12-09T03:24:19.055Z,23.54
2016-12-09T03:24:47.165Z,23.52
2016-12-09T03:25:15.466Z,23.59
2016-12-09T03:26:26.701Z,23.64
2016-12-09T03:26:54.886Z,23.66
2016-12-09T03:27:23.088Z,23.63
2016-12-09T03:27:51.307Z,23.71
2016-12-09T03:28:19.520Z,23.66
2016-12-09T03:28:47.703Z,23.66
2016-12-09T03:29:15.877Z,23.63
2016-12-09T03:29:43.995Z,23.64
2016-12-09T03:30:12.059Z,23.7
2016-12-09T03:30:40.354Z,23.69
2016-12-09T03:31:08.647Z,23.69
2016-12-09T03:32:19.881Z,23.74
2016-12-09T03:32:48.065Z,23.67
2016-12-09T03:33:16.362Z,23.73
2016-12-09T03:33:44.484Z,23.73
2016-12-09T03:34:12.784Z,23.67
2016-12-09T03:34:41.061Z,23.66
2016-12-09T03:35:09.233Z,23.7
2016-12-09T03:35:37.444Z,23.69
2016-12-09T03:36:05.691Z,23.73
2016-12-09T03:36:33.803Z,23.73
2016-12-09T03:37:02.011Z,23.73
2016-12-09T03:38:13.246Z,23.69
2016-12-09T03:38:41.522Z,23.76
2016-12-09T03:39:09.626Z,23.76
2016-12-09T03:39:37.657Z,23.78
2016-12-09T03:40:05.779Z,23.81
2016-12-09T03:40:33.870Z,23.84
2016-12-09T03:41:02.043Z,23.81
2016-12-09T03:41:30.060Z,23.82
2016-12-09T03:41:58.304Z,23.84
2016-12-09T03:42:26.415Z,23.81
2016-12-09T03:42:54.713Z,23.82
2016-12-09T03:44:05.949Z,23.79
2016-12-09T03:44:33.947Z,23.78
2016-12-09T03:45:02.148Z,23.81
2016-12-09T03:45:30.366Z,23.79
2016-12-09T03:45:58.668Z,23.85
2016-12-09T03:46:26.945Z,23.86
2016-12-09T03:46:55.211Z,23.81
2016-12-09T03:47:23.420Z,23.76
2016-12-09T03:47:51.477Z,23.82
2016-12-09T03:48:19.773Z,23.81
2016-12-09T03:48:47.980Z,23.86
2016-12-09T03:49:59.217Z,23.82
2016-12-09T03:50:27.402Z,23.84
2016-12-09T03:50:55.511Z,23.85
2016-12-09T03:51:23.544Z,23.84
2016-12-09T03:51:51.844Z,23.84
2016-12-09T03:52:20.034Z,23.85
2016-12-09T03:52:48.203Z,23.89
2016-12-09T03:53:16.413Z,23.89
2016-12-09T03:53:44.666Z,23.88
2016-12-09T03:54:12.955Z,23.85
2016-12-09T03:54:41.253Z,23.82
2016-12-09T03:55:52.299Z,24
2016-12-09T03:56:20.483Z,23.97
2016-12-09T03:56:48.684Z,23.85
2016-12-09T03:57:16.907Z,23.92
2016-12-09T03:57:45.115Z,23.97
2016-12-09T03:58:13.297Z,23.98
2016-12-09T03:58:41.561Z,23.88
2016-12-09T03:59:09.681Z,23.96
2016-12-09T03:59:38.024Z,23.89
2016-12-09T04:00:05.948Z,23.92
2016-12-09T04:00:33.963Z,23.97
2016-12-09T04:01:45.286Z,23.91
2016-12-09T04:02:13.285Z,23.92
2016-12-09T04:02:41.483Z,23.92
2016-12-09T04:03:09.790Z,23.98
2016-12-09T04:03:38.094Z,23.89
2016-12-09T04:04:06.381Z,23.96
2016-12-09T04:04:34.646Z,23.92
2016-12-09T04:05:02.853Z,23.94
2016-12-09T04:05:31.100Z,23.85
2016-12-09T04:05:59.119Z,23.88
2016-12-09T04:06:27.419Z,23.97
2016-12-09T04:07:38.563Z,23.92
2016-12-09T04:08:06.654Z,23.89
2016-12-09T04:08:34.950Z,23.91
2016-12-09T04:09:03.170Z,23.96
2016-12-09T04:09:31.472Z,23.88
2016-12-09T04:09:59.660Z,23.88
2016-12-09T04:10:27.827Z,23.91
2016-12-09T04:10:55.943Z,23.91
2016-12-09T04:11:24.096Z,23.94
2016-12-09T04:11:52.206Z,23.88
2016-12-09T04:12:20.326Z,24.01
2016-12-09T04:13:31.649Z,23.92
2016-12-09T04:13:59.647Z,23.86
2016-12-09T04:14:27.756Z,23.86
2016-12-09T04:14:55.881Z,23.81
2016-12-09T04:15:24.180Z,23.86
2016-12-09T04:15:52.368Z,23.88
2016-12-09T04:16:20.623Z,23.84
2016-12-09T04:16:48.830Z,23.86
2016-12-09T04:17:16.991Z,23.85
2016-12-09T04:17:45.107Z,23.88
2016-12-09T04:18:13.403Z,23.86
2016-12-09T04:19:24.730Z,23.88
2016-12-09T04:19:52.916Z,23.88
2016-12-09T04:20:21.210Z,23.88
2016-12-09T04:20:49.429Z,23.89
2016-12-09T04:21:17.635Z,23.79
2016-12-09T04:21:45.731Z,23.85
2016-12-09T04:22:13.992Z,23.86
2016-12-09T04:22:42.108Z,23.86
2016-12-09T04:23:10.359Z,23.88
2016-12-09T04:23:38.464Z,23.89
2016-12-09T04:24:06.484Z,23.91
2016-12-09T04:25:17.630Z,23.91
2016-12-09T04:25:45.719Z,23.96
2016-12-09T04:26:13.919Z,23.85
2016-12-09T04:26:42.138Z,23.88
2016-12-09T04:27:10.252Z,23.94
2016-12-09T04:27:38.344Z,23.91
2016-12-09T04:28:06.511Z,23.85
2016-12-09T04:28:34.718Z,23.94
2016-12-09T04:29:02.869Z,23.91
2016-12-09T04:29:31.169Z,23.85
2016-12-09T04:29:59.373Z,23.92
2016-12-09T04:31:10.703Z,23.91
2016-12-09T04:31:38.979Z,23.96
2016-12-09T04:32:07.181Z,23.89
2016-12-09T04:32:35.308Z,24.04
2016-12-09T04:33:03.610Z,23.97
2016-12-09T04:33:31.884Z,24.04
2016-12-09T04:34:00.059Z,24
2016-12-09T04:34:28.271Z,24.07
2016-12-09T04:34:56.332Z,23.91
2016-12-09T04:35:24.349Z,23.97
2016-12-09T04:35:52.650Z,23.98
2016-12-09T04:37:03.978Z,24.04
2016-12-09T04:37:32.255Z,23.98
2016-12-09T04:38:00.551Z,23.91
2016-12-09T04:38:28.766Z,24
2016-12-09T04:38:56.982Z,24.01
2016-12-09T04:39:25.266Z,24.01
2016-12-09T04:39:53.439Z,24.04
2016-12-09T04:40:21.551Z,24.04
2016-12-09T04:40:49.798Z,23.97
2016-12-09T04:41:17.908Z,24.01
2016-12-09T04:41:46.209Z,24.01
2016-12-09T04:42:57.440Z,23.96
2016-12-09T04:43:25.717Z,23.98
2016-12-09T04:43:53.923Z,23.92
2016-12-09T04:44:22.136Z,23.96
2016-12-09T04:44:50.253Z,23.92
2016-12-09T04:45:18.347Z,23.89
2016-12-09T04:45:46.516Z,24.01
2016-12-09T04:46:14.726Z,24.04
2016-12-09T04:46:42.881Z,24
2016-12-09T04:47:11.115Z,23.94
2016-12-09T04:47:39.237Z,24.01
2016-12-09T04:48:50.468Z,23.97
2016-12-09T04:49:18.563Z,24.01
2016-12-09T04:49:46.770Z,24.04
2016-12-09T04:50:14.988Z,23.98
2016-12-09T04:50:43.016Z,23.97
2016-12-09T04:51:11.295Z,23.98
2016-12-09T04:51:39.557Z,23.92
2016-12-09T04:52:07.767Z,24.01
2016-12-09T04:52:35.924Z,24.04
2016-12-09T04:53:04.220Z,24.07
2016-12-09T04:53:32.337Z,24.03
2016-12-09T04:54:43.386Z,24.07
2016-12-09T04:55:11.570Z,24.03
2016-12-09T04:55:39.678Z,24.04
2016-12-09T04:56:07.899Z,24.04
2016-12-09T04:56:36.112Z,24
2016-12-09T04:57:04.311Z,24.03
2016-12-09T04:57:32.575Z,24.07
2016-12-09T04:58:00.782Z,24.01
2016-12-09T04:58:29.121Z,24.03
2016-12-09T04:58:57.326Z,24.03
2016-12-09T04:59:25.528Z,24.04
2016-12-09T05:00:36.760Z,24.06
2016-12-09T05:01:04.855Z,23.94
2016-12-09T05:01:33.146Z,24.01
2016-12-09T05:02:01.369Z,24.06
2016-12-09T05:02:29.673Z,23.97
2016-12-09T05:02:57.859Z,24.04
2016-12-09T05:03:25.938Z,24.04
2016-12-09T05:03:54.146Z,24.04
2016-12-09T05:04:22.389Z,24.04
2016-12-09T05:04:50.590Z,23.96
2016-12-09T05:05:18.704Z,23.96
2016-12-09T05:06:29.931Z,24.01
2016-12-09T05:06:57.937Z,24.07
2016-12-09T05:07:26.233Z,23.91
2016-12-09T05:07:54.538Z,23.94
2016-12-09T05:08:22.844Z,23.92
2016-12-09T05:08:51.028Z,23.91
2016-12-09T05:09:19.113Z,23.91
2016-12-09T05:09:47.419Z,23.89
2016-12-09T05:10:15.669Z,23.96
2016-12-09T05:10:43.867Z,23.92
2016-12-09T05:11:12.071Z,23.91
2016-12-09T05:12:23.399Z,23.86
2016-12-09T05:12:51.489Z,23.94
2016-12-09T05:13:19.785Z,23.97
2016-12-09T05:13:48.095Z,23.85
2016-12-09T05:14:16.212Z,23.92
2016-12-09T05:14:44.306Z,23.81
2016-12-09T05:15:12.480Z,23.88
2016-12-09T05:15:40.687Z,23.81
2016-12-09T05:16:08.935Z,23.82
2016-12-09T05:16:37.036Z,23.81
2016-12-09T05:17:05.336Z,23.81
2016-12-09T05:18:16.475Z,23.88
2016-12-09T05:18:44.660Z,23.85
2016-12-09T05:19:12.867Z,23.85
2016-12-09T05:19:41.176Z,23.85
2016-12-09T05:20:09.481Z,23.85
2016-12-09T05:20:37.662Z,23.82
2016-12-09T05:21:05.836Z,23.79
2016-12-09T05:21:33.860Z,23.84
2016-12-09T05:22:02.109Z,23.82
2016-12-09T05:22:30.407Z,23.79
2016-12-09T05:22:58.618Z,23.85
2016-12-09T05:24:09.758Z,23.81
2016-12-09T05:24:37.947Z,23.78
2016-12-09T05:25:06.244Z,23.84
2016-12-09T05:25:34.554Z,23.82
2016-12-09T05:26:02.856Z,23.78
2016-12-09T05:26:31.045Z,23.79
2016-12-09T05:26:59.217Z,23.79
2016-12-09T05:27:27.423Z,23.7
2016-12-09T05:27:55.669Z,23.74
2016-12-09T05:28:23.779Z,23.73
2016-12-09T05:28:51.986Z,23.69
2016-12-09T05:30:03.030Z,23.78
2016-12-09T05:30:31.219Z,23.78
2016-12-09T05:30:59.420Z,23.74
2016-12-09T05:31:27.729Z,23.79
2016-12-09T05:31:56.035Z,23.82
2016-12-09T05:32:24.315Z,23.78
2016-12-09T05:32:52.578Z,23.71
2016-12-09T05:33:20.879Z,23.76
2016-12-09T05:33:49.030Z,23.74
2016-12-09T05:34:17.046Z,23.78
2016-12-09T05:34:45.347Z,23.73
2016-12-09T05:35:56.586Z,23.74
2016-12-09T05:36:24.863Z,23.71
2016-12-09T05:36:53.073Z,23.82
2016-12-09T05:37:21.289Z,23.78
2016-12-09T05:37:49.495Z,23.74
2016-12-09T05:38:17.719Z,23.71
2016-12-09T05:38:45.983Z,23.74
2016-12-09T05:39:14.190Z,23.74
2016-12-09T05:39:42.528Z,23.82
2016-12-09T05:40:10.542Z,23.79
2016-12-09T05:40:38.838Z,23.71
2016-12-09T05:41:50.077Z,23.73
2016-12-09T05:42:18.352Z,23.76
2016-12-09T05:42:46.369Z,23.7
2016-12-09T05:43:14.590Z,23.7
2016-12-09T05:43:42.794Z,23.66
2016-12-09T05:44:10.979Z,23.64
2016-12-09T05:44:39.151Z,23.66
2016-12-09T05:45:07.455Z,23.69
2016-12-09T05:45:35.706Z,23.66
2016-12-09T05:46:03.812Z,23.61
2016-12-09T05:46:32.029Z,23.61
2016-12-09T05:47:43.086Z,23.6
2016-12-09T05:48:11.364Z,23.52
2016-12-09T05:48:39.473Z,23.51
2016-12-09T05:49:07.689Z,23.51
2016-12-09T05:49:35.812Z,23.51
2016-12-09T05:50:03.906Z,23.52
2016-12-09T05:50:32.074Z,23.54
2016-12-09T05:51:00.187Z,23.56
2016-12-09T05:51:28.436Z,23.51
2016-12-09T05:51:56.734Z,23.52
2016-12-09T05:52:25.032Z,23.56
2016-12-09T05:53:36.176Z,23.44
2016-12-09T05:54:04.368Z,23.49
2016-12-09T05:54:32.566Z,23.49
2016-12-09T05:55:00.688Z,23.45
2016-12-09T05:55:28.716Z,23.39
2016-12-09T05:55:57.000Z,23.46
2016-12-09T05:56:25.166Z,23.48
2016-12-09T05:56:53.463Z,23.34
2016-12-09T05:57:21.620Z,23.36
2016-12-09T05:57:49.911Z,23.41
2016-12-09T05:58:18.211Z,23.39
2016-12-09T05:59:29.356Z,23.44
2016-12-09T05:59:57.629Z,23.39
2016-12-09T06:00:25.646Z,23.45
2016-12-09T06:00:53.863Z,23.39
2016-12-09T06:01:22.071Z,23.42
2016-12-09T06:01:50.256Z,23.45
2016-12-09T06:02:18.524Z,23.44
2016-12-09T06:02:46.637Z,23.42
2016-12-09T06:03:14.978Z,23.49
2016-12-09T06:03:43.087Z,23.46
2016-12-09T06:04:11.293Z,23.49
2016-12-09T06:05:22.536Z,23.34
2016-12-09T06:05:50.535Z,23.46
2016-12-09T06:06:18.733Z,23.37
2016-12-09T06:06:46.858Z,23.36
2016-12-09T06:07:15.074Z,23.39
2016-12-09T06:07:43.174Z,23.36
2016-12-09T06:08:11.351Z,23.36
2016-12-09T06:08:39.370Z,23.36
2016-12-09T06:09:07.619Z,23.31
2016-12-09T06:09:35.826Z,23.31
2016-12-09T06:10:04.126Z,23.36
2016-12-09T06:11:15.367Z,23.37
2016-12-09T06:11:43.463Z,23.37
2016-12-09T06:12:11.566Z,23.34
2016-12-09T06:12:39.810Z,23.39
2016-12-09T06:13:08.107Z,23.36
2016-12-09T06:13:36.393Z,23.41
2016-12-09T06:14:04.563Z,23.28
2016-12-09T06:14:32.772Z,23.28
2016-12-09T06:15:01.014Z,23.31
2016-12-09T06:15:29.312Z,23.34
2016-12-09T06:15:57.610Z,23.26
2016-12-09T06:17:08.846Z,23.22
2016-12-09T06:17:37.030Z,23.29
2016-12-09T06:18:05.226Z,23.28
2016-12-09T06:18:33.438Z,23.26
2016-12-09T06:19:01.739Z,23.28
2016-12-09T06:19:30.021Z,23.26
2016-12-09T06:19:58.188Z,23.28
2016-12-09T06:20:26.398Z,23.26
2016-12-09T06:20:54.742Z,23.29
2016-12-09T06:21:22.942Z,23.26
2016-12-09T06:21:51.152Z,23.18
2016-12-09T06:23:02.483Z,23.39
2016-12-09T06:23:30.672Z,23.28
2016-12-09T06:23:58.968Z,23.22
2016-12-09T06:24:27.282Z,23.23
2016-12-09T06:24:55.589Z,23.26
2016-12-09T06:25:23.779Z,23.28
2016-12-09T06:25:52.044Z,23.26
2016-12-09T06:26:20.159Z,23.33
2016-12-09T06:26:48.501Z,23.17
2016-12-09T06:27:16.519Z,23.28
2016-12-09T06:27:44.729Z,23.34
2016-12-09T06:28:55.871Z,23.23
2016-12-09T06:29:24.059Z,23.25
2016-12-09T06:29:52.358Z,23.21
2016-12-09T06:30:20.574Z,23.08
2016-12-09T06:30:48.871Z,23.18
2016-12-09T06:31:17.059Z,23.21
2016-12-09T06:31:45.227Z,23.14
2016-12-09T06:32:13.439Z,23.06
2016-12-09T06:32:41.779Z,23.11
2016-12-09T06:33:10.072Z,23.14
2016-12-09T06:33:38.274Z,23.17
2016-12-09T06:34:49.325Z,23.13
2016-12-09T06:35:17.418Z,23.18
2016-12-09T06:35:45.618Z,23.07
2016-12-09T06:36:13.930Z,23.17
2016-12-09T06:36:42.237Z,23.08
2016-12-09T06:37:10.516Z,23.18
2016-12-09T06:37:38.781Z,23.15
2016-12-09T06:38:07.080Z,23.14
2016-12-09T06:38:35.331Z,23.14
2016-12-09T06:39:03.531Z,23.11
2016-12-09T06:39:31.731Z,23.18
2016-12-09T06:40:42.964Z,23.13
2016-12-09T06:41:11.052Z,23.1
2016-12-09T06:41:39.066Z,23.15
2016-12-09T06:42:07.100Z,23.07
2016-12-09T06:42:35.405Z,23.14
2016-12-09T06:43:03.593Z,23.15
2016-12-09T06:43:31.856Z,23.15
2016-12-09T06:43:59.974Z,23.17
2016-12-09T06:44:28.228Z,23.18
2016-12-09T06:44:56.775Z,23.17
2016-12-09T06:45:25.139Z,23.08
2016-12-09T06:46:36.935Z,23.15
2016-12-09T06:47:04.936Z,23.15
2016-12-09T06:47:33.134Z,23.13
2016-12-09T06:48:01.444Z,23.11
2016-12-09T06:48:29.652Z,23.15
2016-12-09T06:48:57.842Z,23.11
2016-12-09T06:49:26.106Z,23.07
2016-12-09T06:49:54.224Z,23.11
2016-12-09T06:50:22.564Z,23.23
2016-12-09T06:50:50.771Z,23.08
2016-12-09T06:51:19.073Z,23.11
2016-12-09T06:52:30.314Z,23.15
2016-12-09T06:52:58.500Z,23.11
2016-12-09T06:53:26.797Z,23.07
2016-12-09T06:53:55.011Z,23.14